Time;durP1;ratioP1;P1;durP2;ratioP2;P2;SDS_P1;SDS_P2;PMS_P1;PMS_P2;Temp;Humidity;BMP_temperature;BMP_pressure;BME280_temperature;BME280_humidity;BME280_pressure;Samples;Min_cycle;Max_cycle;Signal;HPM_P1;HPM_P2
2022/10/17 00:00:41;;;;;;;5.22;4.79;;;;;;;5.79;65.79;102675.80;451215;117;922773;-79
2022/10/17 00:01:44;;;;;;;5.08;4.64;;;;;;;5.78;65.78;102683.09;451157;117;922900;-79
2022/10/17 00:02:47;;;;;;;5.44;4.90;;;;;;;5.77;65.75;102678.66;451250;117;922830;-78
2022/10/17 00:03:50;;;;;;;6.02;5.48;;;;;;;5.77;65.79;102689.48;451200;117;922888;-79
2022/10/17 00:04:53;;;;;;;5.02;4.59;;;;;;;5.77;65.80;102683.20;451243;117;922497;-79
2022/10/17 00:05:56;;;;;;;5.35;4.69;;;;;;;5.76;65.85;102682.34;443451;119;922964;-79
2022/10/17 00:07:00;;;;;;;5.31;4.86;;;;;;;5.76;65.70;102681.48;443915;117;922616;-79
2022/10/17 00:08:04;;;;;;;4.97;4.49;;;;;;;5.74;65.72;102676.20;451327;117;922566;-78
2022/10/17 00:09:06;;;;;;;5.38;4.98;;;;;;;5.75;65.71;102679.77;451229;117;922779;-78
2022/10/17 00:10:10;;;;;;;5.75;4.89;;;;;;;5.74;65.67;102678.04;451203;117;922500;-79
2022/10/17 00:11:17;;;;;;;4.72;4.34;;;;;;;5.72;65.72;102680.91;451236;117;922635;-79
2022/10/17 00:12:20;;;;;;;5.07;4.64;;;;;;;5.72;65.66;102686.31;450718;117;922980;-79
2022/10/17 00:13:24;;;;;;;4.51;4.12;;;;;;;5.73;65.71;102681.77;451270;117;923039;-79
2022/10/17 00:14:27;;;;;;;5.24;4.72;;;;;;;5.72;65.69;102680.91;451132;117;923040;-79
2022/10/17 00:15:31;;;;;;;5.36;4.55;;;;;;;5.71;65.66;102676.47;451205;117;922467;-79
2022/10/17 00:16:36;;;;;;;5.36;4.87;;;;;;;5.71;65.64;102681.03;452635;117;922531;-79
2022/10/17 00:17:39;;;;;;;5.15;4.71;;;;;;;5.70;65.66;102680.16;452761;117;922591;-79
2022/10/17 00:18:42;;;;;;;4.66;3.92;;;;;;;5.70;65.66;102682.01;452840;117;930576;-80
2022/10/17 00:19:45;;;;;;;4.96;4.50;;;;;;;5.69;65.68;102683.86;452892;117;922809;-79
2022/10/17 00:20:48;;;;;;;5.23;4.84;;;;;;;5.69;65.67;102680.29;452832;117;922481;-80
2022/10/17 00:21:51;;;;;;;4.89;4.36;;;;;;;5.68;65.62;102682.13;452875;117;922480;-79
2022/10/17 00:22:54;;;;;;;6.71;4.83;;;;;;;5.67;65.66;102680.45;452774;117;922952;-80
2022/10/17 00:23:59;;;;;;;4.97;4.52;;;;;;;5.67;65.67;102676.88;452863;117;922988;-79
2022/10/17 00:25:02;;;;;;;5.95;5.18;;;;;;;5.67;65.70;102682.29;452752;117;922572;-80
2022/10/17 00:26:06;;;;;;;4.85;4.45;;;;;;;5.67;65.68;102687.70;452785;117;922938;-79
2022/10/17 00:27:09;;;;;;;6.47;4.83;;;;;;;5.67;65.68;102687.70;452912;117;922584;-80
2022/10/17 00:28:13;;;;;;;4.85;4.45;;;;;;;5.67;65.81;102685.86;452875;117;922891;-80
2022/10/17 00:29:16;;;;;;;4.74;4.31;;;;;;;5.67;65.83;102691.27;452694;117;923154;-80
2022/10/17 00:30:21;;;;;;;5.17;4.71;;;;;;;5.68;65.84;102684.02;454020;116;930539;-80
2022/10/17 00:31:24;;;;;;;5.69;4.30;;;;;;;5.68;65.83;102692.13;454088;116;922609;-79
2022/10/17 00:32:28;;;;;;;4.81;4.41;;;;;;;5.68;65.81;102689.42;447035;118;922657;-79
2022/10/17 00:33:32;;;;;;;5.21;4.72;;;;;;;5.67;65.81;102685.86;446934;118;922649;-79
2022/10/17 00:34:35;;;;;;;5.96;5.01;;;;;;;5.67;65.92;102693.11;446839;118;922525;-80
2022/10/17 00:35:38;;;;;;;5.35;4.85;;;;;;;5.67;65.84;102693.98;446903;118;928091;-79
2022/10/17 00:36:41;;;;;;;6.04;5.36;;;;;;;5.67;65.90;102690.41;446970;118;922610;-79
2022/10/17 00:37:45;;;;;;;6.35;5.66;;;;;;;5.66;65.82;102700.38;447015;118;923025;-79
2022/10/17 00:38:51;;;;;;;5.78;5.22;;;;;;;5.66;65.82;102703.08;447025;118;922518;-79
2022/10/17 00:39:54;;;;;;;5.76;5.18;;;;;;;5.66;65.81;102694.09;446848;118;922509;-79
2022/10/17 00:40:57;;;;;;;7.17;5.12;;;;;;;5.66;65.84;102694.09;447013;118;922420;-80
2022/10/17 00:42:00;;;;;;;5.49;4.69;;;;;;;5.65;65.87;102698.65;447081;118;923074;-79
2022/10/17 00:43:03;;;;;;;5.46;4.96;;;;;;;5.65;65.86;102690.53;447017;118;922566;-79
2022/10/17 00:44:32;;;;;;;6.74;4.73;;;;;;;5.64;65.74;102701.48;446970;118;922424;-80
2022/10/17 00:45:36;;;;;;;6.18;4.92;;;;;;;5.65;65.78;102700.49;449275;118;922687;-79
2022/10/17 00:46:40;;;;;;;5.29;4.66;;;;;;;5.62;65.79;102704.34;449756;118;930602;-79
2022/10/17 00:47:47;;;;;;;7.13;5.09;;;;;;;5.61;65.89;102705.32;446904;118;922761;-79
2022/10/17 00:48:53;;;;;;;5.84;5.31;;;;;;;5.62;65.84;102706.19;446819;118;922970;-80
2022/10/17 00:49:57;;;;;;;5.31;4.85;;;;;;;5.61;65.92;102712.58;446805;118;922623;-80
2022/10/17 00:51:02;;;;;;;5.49;4.68;;;;;;;5.61;65.88;102715.28;446809;118;923009;-80
2022/10/17 00:52:18;;;;;;;5.83;5.31;;;;;;;5.61;65.97;102709.88;452698;116;923508;-77
2022/10/17 00:53:21;;;;;;;4.87;4.44;;;;;;;5.61;65.95;102708.03;453765;116;923029;-78
2022/10/17 00:54:33;;;;;;;5.04;4.62;;;;;;;5.61;65.97;102707.17;445803;118;922564;-78
2022/10/17 00:55:49;;;;;;;5.24;4.12;;;;;;;5.61;65.88;102717.99;445671;119;922561;-78
2022/10/17 00:56:53;;;;;;;4.32;3.98;;;;;;;5.61;66.00;102710.73;445637;118;922663;-79
2022/10/17 00:57:59;;;;;;;6.14;4.35;;;;;;;5.61;65.96;102710.73;445732;118;922414;-78
2022/10/17 00:59:02;;;;;;;6.13;4.77;;;;;;;5.60;65.86;102713.56;445624;119;922919;-78
2022/10/17 01:00:08;;;;;;;5.54;4.22;;;;;;;5.60;65.92;102710.86;445424;119;922553;-78
2022/10/17 01:01:11;;;;;;;7.38;4.07;;;;;;;5.59;65.78;102717.25;445303;119;922547;-78
2022/10/17 01:02:18;;;;;;;4.44;4.04;;;;;;;5.57;65.76;102720.08;445493;119;922558;-78
2022/10/17 01:03:23;;;;;;;4.52;4.12;;;;;;;5.57;65.80;102719.25;445227;119;922526;-78
2022/10/17 01:04:26;;;;;;;4.91;4.17;;;;;;;5.56;65.83;102718.39;445314;119;923064;-78
2022/10/17 01:05:29;;;;;;;5.12;4.44;;;;;;;5.57;65.85;102716.55;445329;119;922579;-78
2022/10/17 01:06:32;;;;;;;4.91;4.41;;;;;;;5.56;65.85;102721.09;445328;119;922488;-79
2022/10/17 01:07:37;;;;;;;4.98;4.53;;;;;;;5.56;65.86;102717.53;445374;119;922584;-78
2022/10/17 01:08:40;;;;;;;4.95;4.46;;;;;;;5.55;65.89;102719.38;445225;119;922576;-78
2022/10/17 01:09:45;;;;;;;6.40;4.67;;;;;;;5.55;65.88;102721.22;445374;119;922512;-78
2022/10/17 01:10:54;;;;;;;5.79;5.29;;;;;;;5.54;65.88;102725.77;445161;119;922792;-78
2022/10/17 01:12:05;;;;;;;5.15;4.69;;;;;;;5.55;66.02;102723.92;444547;119;922953;-78
2022/10/17 01:13:21;;;;;;;5.24;4.69;;;;;;;5.54;65.96;102725.77;444990;119;922803;-79
2022/10/17 01:14:33;;;;;;;5.39;4.57;;;;;;;5.54;65.87;102719.49;444990;119;930486;-79
2022/10/17 01:15:46;;;;;;;5.13;4.74;;;;;;;5.54;65.87;102719.49;444931;119;922519;-80
2022/10/17 01:16:58;;;;;;;5.52;5.04;;;;;;;5.53;66.06;102726.75;435736;121;922559;-79
2022/10/17 01:18:33;;;;;;;7.49;6.79;;;;;;;5.53;66.06;102725.88;437810;121;922580;-79
2022/10/17 01:20:00;;;;;;;8.16;7.44;;;;;;;5.51;66.07;102722.47;437805;121;922723;-79
2022/10/17 01:21:22;;;;;;;8.98;8.04;;;;;;;5.51;66.07;102722.47;435389;121;922659;-79
2022/10/17 01:22:46;;;;;;;8.81;8.07;;;;;;;5.49;66.06;102732.55;437387;121;923041;-79
2022/10/17 01:23:56;;;;;;;8.49;7.80;;;;;;;5.47;66.06;102735.37;437732;121;922658;-79
2022/10/17 01:25:29;;;;;;;8.22;7.41;;;;;;;5.46;66.20;102736.36;437765;121;922641;-79
2022/10/17 01:26:53;;;;;;;6.71;6.03;;;;;;;5.46;66.09;102739.92;437792;121;922658;-79
2022/10/17 01:28:27;;;;;;;6.68;6.08;;;;;;;5.44;66.21;102731.10;441370;119;922905;-79
2022/10/17 01:29:53;;;;;;;5.49;5.08;;;;;;;5.43;66.13;102729.38;445541;119;923092;-79
2022/10/17 01:30:59;;;;;;;4.76;4.36;;;;;;;5.41;66.13;102739.45;438163;121;923414;-79
2022/10/17 01:32:37;;;;;;;4.95;4.38;;;;;;;5.40;66.13;102735.03;443414;119;922703;-79
2022/10/17 01:33:46;;;;;;;5.09;4.61;;;;;;;5.39;66.18;102733.34;445255;119;922559;-79
2022/10/17 01:35:05;;;;;;;5.33;3.77;;;;;;;5.38;66.11;102736.16;444407;119;922528;-79
2022/10/17 01:36:33;;;;;;;4.36;3.96;;;;;;;5.37;66.09;102739.84;443750;119;922495;-79
2022/10/17 01:37:56;;;;;;;4.64;4.18;;;;;;;5.36;66.03;102744.40;444157;119;922660;-80
2022/10/17 01:39:19;;;;;;;4.54;4.02;;;;;;;5.33;66.08;102739.26;444395;119;922876;-79
2022/10/17 01:40:30;;;;;;;4.01;3.59;;;;;;;5.32;65.98;102740.23;444438;119;922655;-79
2022/10/17 01:41:40;;;;;;;4.56;4.06;;;;;;;5.30;66.00;102739.50;444057;119;922582;-79
2022/10/17 01:42:52;;;;;;;6.10;3.53;;;;;;;5.30;66.15;102744.91;441257;120;922592;-79
2022/10/17 01:44:02;;;;;;;5.44;4.99;;;;;;;5.29;66.09;102743.18;441746;119;922767;-79
2022/10/17 01:45:17;;;;;;;4.60;4.28;;;;;;;5.30;66.09;102742.20;434538;119;922783;-79
2022/10/17 01:46:33;;;;;;;5.35;4.79;;;;;;;5.31;66.08;102745.77;444082;119;922920;-79
2022/10/17 01:47:37;;;;;;;4.28;3.82;;;;;;;5.32;66.07;102742.08;444292;119;922589;-79
2022/10/17 01:48:43;;;;;;;4.15;3.81;;;;;;;5.31;66.07;102745.77;444523;119;922511;-79
2022/10/17 01:49:50;;;;;;;3.81;3.52;;;;;;;5.32;66.14;102742.94;444451;119;922922;-79
2022/10/17 01:50:59;;;;;;;3.61;3.31;;;;;;;5.33;66.15;102749.22;444418;119;922546;-79
2022/10/17 01:52:09;;;;;;;3.63;3.40;;;;;;;5.33;66.09;102750.08;445259;119;922546;-79
2022/10/17 01:53:25;;;;;;;3.50;3.24;;;;;;;5.34;65.96;102750.94;445603;119;922529;-79
2022/10/17 01:54:31;;;;;;;4.09;3.73;;;;;;;5.35;65.96;102748.08;445480;119;922871;-79
2022/10/17 01:55:38;;;;;;;5.40;3.18;;;;;;;5.34;65.88;102751.80;445155;119;923164;-80
2022/10/17 01:56:43;;;;;;;4.12;3.07;;;;;;;5.34;65.88;102751.80;445068;119;922593;-79
2022/10/17 01:57:52;;;;;;;3.68;3.38;;;;;;;5.34;66.01;102757.21;445676;119;923171;-79
2022/10/17 01:59:02;;;;;;;3.46;3.19;;;;;;;5.35;65.94;102752.63;445554;119;930606;-79
2022/10/17 02:00:09;;;;;;;3.65;3.32;;;;;;;5.36;65.95;102759.77;445492;119;922444;-79
2022/10/17 02:01:17;;;;;;;5.04;3.49;;;;;;;5.35;65.91;102758.91;445609;119;922652;-79
2022/10/17 02:02:23;;;;;;;3.71;3.33;;;;;;;5.37;65.95;102756.08;445603;119;922545;-80
2022/10/17 02:03:27;;;;;;;3.61;3.31;;;;;;;5.36;65.89;102747.10;445588;119;922637;-79
2022/10/17 02:04:30;;;;;;;3.81;3.01;;;;;;;5.38;65.94;102747.84;445609;119;922566;-79
2022/10/17 02:05:37;;;;;;;3.51;3.21;;;;;;;5.38;65.89;102757.80;445702;119;922591;-79
2022/10/17 02:06:40;;;;;;;3.92;3.55;;;;;;;5.36;65.84;102746.23;445022;119;923055;-78
2022/10/17 02:07:45;;;;;;;3.83;3.50;;;;;;;5.37;65.84;102753.38;445390;119;922644;-79
2022/10/17 02:08:49;;;;;;;3.87;3.53;;;;;;;5.37;65.87;102745.26;445736;119;922538;-79
2022/10/17 02:09:52;;;;;;;3.73;3.34;;;;;;;5.36;65.87;102749.81;445570;119;922606;-79
2022/10/17 02:11:05;;;;;;;3.52;3.22;;;;;;;5.38;65.79;102746.98;445739;119;922740;-79
2022/10/17 02:12:29;;;;;;;3.42;3.18;;;;;;;5.36;65.75;102754.36;445563;119;922971;-78
2022/10/17 02:14:05;;;;;;;3.96;3.60;;;;;;;5.34;65.81;102757.21;445067;119;922707;-78
2022/10/17 02:15:15;;;;;;;4.07;3.64;;;;;;;5.33;65.73;102750.08;444782;119;922593;-79
2022/10/17 02:16:37;;;;;;;4.53;4.11;;;;;;;5.32;65.72;102752.90;445403;119;922757;-79
2022/10/17 02:17:49;;;;;;;4.61;4.08;;;;;;;5.29;65.71;102758.58;445541;119;922635;-78
2022/10/17 02:18:59;;;;;;;4.07;3.77;;;;;;;5.27;65.86;102757.84;444962;117;922673;-79
2022/10/17 02:20:18;;;;;;;4.60;4.20;;;;;;;5.25;65.93;102757.95;445681;119;922848;-78
2022/10/17 02:21:25;;;;;;;3.89;3.59;;;;;;;5.25;65.93;102757.95;445650;119;922932;-78
2022/10/17 02:22:37;;;;;;;4.61;3.57;;;;;;;5.26;66.02;102759.68;444561;119;922571;-79
2022/10/17 02:23:54;;;;;;;4.22;3.92;;;;;;;5.24;65.84;102756.23;445244;119;922636;-78
2022/10/17 02:25:29;;;;;;;3.99;3.64;;;;;;;5.24;65.83;102758.07;438206;121;922554;-78
2022/10/17 02:26:39;;;;;;;3.97;3.55;;;;;;;5.22;65.82;102760.93;438200;121;922593;-79
2022/10/17 02:27:51;;;;;;;4.22;3.92;;;;;;;5.19;65.93;102755.75;437657;121;922726;-79
2022/10/17 02:29:16;;;;;;;3.83;3.49;;;;;;;5.18;65.96;102754.06;438194;121;922686;-79
2022/10/17 02:30:35;;;;;;;4.16;3.76;;;;;;;5.16;66.05;102753.31;443980;118;922427;-79
2022/10/17 02:31:42;;;;;;;4.04;3.66;;;;;;;5.17;66.12;102756.89;438463;120;922671;-79
2022/10/17 02:32:55;;;;;;;4.21;3.83;;;;;;;5.15;66.11;102757.00;446223;118;923107;-79
2022/10/17 02:34:02;;;;;;;5.92;3.88;;;;;;;5.15;66.00;102758.84;449800;116;922627;-80
2022/10/17 02:35:08;;;;;;;4.11;3.71;;;;;;;5.13;65.98;102753.55;454511;116;923467;-79
2022/10/17 02:36:15;;;;;;;4.42;4.02;;;;;;;5.12;65.99;102757.27;454484;116;922615;-80
2022/10/17 02:37:23;;;;;;;4.13;3.77;;;;;;;5.11;66.00;102752.84;454498;116;922766;-79
2022/10/17 02:38:28;;;;;;;4.46;4.02;;;;;;;5.11;65.95;102750.14;454517;116;922695;-80
2022/10/17 02:39:33;;;;;;;4.98;4.47;;;;;;;5.11;65.91;102760.09;454535;116;923029;-80
2022/10/17 02:40:38;;;;;;;4.30;3.97;;;;;;;5.07;65.76;102753.23;454532;116;922582;-79
2022/10/17 02:41:44;;;;;;;4.33;3.79;;;;;;;5.05;65.71;102758.75;454506;116;922484;-79
2022/10/17 02:42:48;;;;;;;4.28;3.88;;;;;;;5.03;65.65;102752.59;454573;116;922848;-80
2022/10/17 02:43:52;;;;;;;4.59;4.18;;;;;;;5.00;65.65;102755.56;454534;116;922601;-79
2022/10/17 02:45:00;;;;;;;3.95;3.65;;;;;;;4.98;65.67;102744.00;454679;116;922631;-80
2022/10/17 02:46:06;;;;;;;3.97;3.61;;;;;;;4.96;65.65;102751.41;454527;116;922576;-79
2022/10/17 02:47:28;;;;;;;4.66;3.76;;;;;;;4.95;65.72;102752.38;454520;116;922583;-80
2022/10/17 02:48:38;;;;;;;3.89;3.58;;;;;;;4.95;65.89;102746.98;454577;116;922585;-80
2022/10/17 02:49:50;;;;;;;6.03;3.75;;;;;;;5.06;66.02;102749.66;476983;110;947059;-79
2022/10/17 02:50:57;;;;;;;3.77;3.47;;;;;;;4.96;66.10;102746.83;464107;114;922536;-78
2022/10/17 02:52:25;;;;;;;4.11;3.68;;;;;;;4.96;66.12;102752.23;460111;115;922523;-78
2022/10/17 02:53:41;;;;;;;3.99;3.64;;;;;;;4.99;66.15;102753.84;461570;115;922497;-79
2022/10/17 02:54:47;;;;;;;3.50;3.26;;;;;;;4.98;66.15;102752.12;461788;113;922690;-79
2022/10/17 02:55:54;;;;;;;3.96;3.62;;;;;;;4.99;66.20;102751.14;461280;114;922583;-79
2022/10/17 02:57:17;;;;;;;4.06;3.66;;;;;;;4.99;66.18;102749.30;461623;115;922576;-79
2022/10/17 02:58:27;;;;;;;3.82;3.52;;;;;;;4.99;66.23;102753.84;461573;115;922630;-79
2022/10/17 02:59:33;;;;;;;3.89;3.52;;;;;;;4.99;66.11;102751.14;461080;113;922972;-79
2022/10/17 03:00:39;;;;;;;3.49;3.26;;;;;;;4.98;66.08;102755.69;461540;115;922943;-78
2022/10/17 03:01:43;;;;;;;5.36;4.87;;;;;;;4.98;66.07;102750.27;461561;115;922546;-78
2022/10/17 03:02:49;;;;;;;5.25;4.79;;;;;;;4.98;66.14;102755.69;461676;115;922960;-78
2022/10/17 03:04:10;;;;;;;4.02;3.68;;;;;;;4.99;66.00;102757.41;461596;115;922568;-79
2022/10/17 03:05:17;;;;;;;4.52;4.12;;;;;;;4.99;66.01;102760.11;461520;115;922896;-79
2022/10/17 03:06:20;;;;;;;3.72;3.42;;;;;;;4.99;66.01;102760.11;460213;114;922436;-79
2022/10/17 03:07:23;;;;;;;3.98;3.56;;;;;;;5.00;65.94;102767.24;461758;115;922513;-80
2022/10/17 03:08:26;;;;;;;3.91;3.52;;;;;;;5.01;65.92;102760.00;461782;115;922520;-80
2022/10/17 03:09:30;;;;;;;4.10;3.73;;;;;;;5.01;65.81;102760.00;461538;115;922581;-80
2022/10/17 03:10:34;;;;;;;4.32;3.84;;;;;;;4.99;65.77;102760.11;461719;115;922476;-80
2022/10/17 03:11:37;;;;;;;4.30;3.91;;;;;;;5.00;65.73;102759.13;461715;114;922564;-80
2022/10/17 03:12:41;;;;;;;4.05;3.72;;;;;;;4.99;65.67;102753.84;461667;115;922739;-80
2022/10/17 03:13:44;;;;;;;3.26;2.98;;;;;;;4.99;65.64;102764.66;462308;115;922764;-79
2022/10/17 03:14:47;;;;;;;3.59;3.29;;;;;;;4.98;65.65;102762.93;462205;115;922259;-79
2022/10/17 03:15:51;;;;;;;3.62;3.31;;;;;;;4.98;65.64;102760.23;459706;114;922499;-79
2022/10/17 03:16:55;;;;;;;4.06;3.70;;;;;;;4.97;65.51;102762.06;449671;118;922261;-79
2022/10/17 03:17:58;;;;;;;4.22;3.87;;;;;;;4.98;65.50;102757.52;449329;118;922919;-80
2022/10/17 03:19:01;;;;;;;3.77;3.51;;;;;;;4.97;65.48;102762.06;449203;118;922608;-79
2022/10/17 03:20:06;;;;;;;3.91;3.56;;;;;;;4.97;65.43;102761.20;449755;116;922521;-79
2022/10/17 03:21:09;;;;;;;3.37;3.08;;;;;;;4.96;65.37;102764.92;457302;114;922589;-79
2022/10/17 03:22:12;;;;;;;3.72;3.42;;;;;;;4.95;65.33;102760.50;457458;115;930499;-79
2022/10/17 03:23:15;;;;;;;3.51;3.21;;;;;;;4.95;65.32;102757.79;457518;115;922631;-79
2022/10/17 03:24:18;;;;;;;3.97;3.67;;;;;;;4.94;65.29;102758.77;457463;115;922498;-79
2022/10/17 03:25:21;;;;;;;3.53;3.10;;;;;;;4.93;65.29;102752.50;457480;116;922577;-79
2022/10/17 03:26:24;;;;;;;3.26;2.81;;;;;;;4.93;65.22;102759.75;450471;115;922651;-79
2022/10/17 03:27:28;;;;;;;3.62;3.36;;;;;;;4.92;65.17;102758.02;450679;116;922694;-79
2022/10/17 03:28:31;;;;;;;3.66;3.24;;;;;;;4.91;65.19;102759.00;457367;116;924695;-79
2022/10/17 03:29:34;;;;;;;4.19;3.79;;;;;;;4.90;65.15;102762.72;457350;115;923118;-79
2022/10/17 03:30:38;;;;;;;3.61;3.31;;;;;;;4.90;65.22;102768.13;454205;116;922533;-79
2022/10/17 03:31:41;;;;;;;3.68;3.38;;;;;;;4.89;65.10;102767.26;455376;116;923087;-79
2022/10/17 03:32:45;;;;;;;3.87;3.57;;;;;;;4.89;65.16;102769.09;457477;115;922610;-79
2022/10/17 03:33:48;;;;;;;3.44;3.15;;;;;;;4.88;65.06;102765.53;459688;113;922547;-80
2022/10/17 03:34:51;;;;;;;3.86;3.51;;;;;;;4.87;65.13;102758.41;466676;113;922600;-80
2022/10/17 03:35:54;;;;;;;4.03;3.71;;;;;;;4.87;65.04;102761.10;466673;113;923344;-79
2022/10/17 03:36:58;;;;;;;3.41;3.12;;;;;;;4.87;64.99;102768.35;466660;113;922572;-79
2022/10/17 03:38:02;;;;;;;4.09;3.74;;;;;;;4.85;64.93;102764.94;457358;116;922582;-78
2022/10/17 03:39:05;;;;;;;3.78;3.48;;;;;;;4.84;64.94;102765.91;457786;113;922533;-78
2022/10/17 03:40:09;;;;;;;3.27;3.04;;;;;;;4.83;64.87;102765.05;466631;113;922491;-80
2022/10/17 03:41:12;;;;;;;3.41;3.11;;;;;;;4.82;64.95;102760.62;466493;113;922830;-79
2022/10/17 03:42:15;;;;;;;4.08;3.69;;;;;;;4.82;64.94;102759.76;466527;113;922525;-78
2022/10/17 03:43:19;;;;;;;3.18;2.86;;;;;;;4.81;64.78;102760.73;466552;113;922599;-78
2022/10/17 03:44:22;;;;;;;3.72;3.41;;;;;;;4.79;64.83;102760.89;466492;113;922849;-78
2022/10/17 03:45:26;;;;;;;3.17;2.96;;;;;;;4.78;64.57;102764.56;466444;113;922500;-78
2022/10/17 03:46:29;;;;;;;3.50;3.20;;;;;;;4.75;64.38;102762.09;466605;113;922469;-78
2022/10/17 03:47:33;;;;;;;3.54;3.24;;;;;;;4.71;64.27;102762.47;466522;113;922463;-78
2022/10/17 03:48:36;;;;;;;3.35;3.06;;;;;;;4.68;64.21;102763.59;466554;113;923020;-78
2022/10/17 03:49:40;;;;;;;3.59;3.26;;;;;;;4.65;64.11;102760.26;466478;113;923391;-78
2022/10/17 03:50:43;;;;;;;3.74;3.37;;;;;;;4.59;64.10;102770.58;466629;113;923043;-78
2022/10/17 03:51:46;;;;;;;3.87;3.29;;;;;;;4.56;64.14;102769.97;463235;113;922541;-78
2022/10/17 03:52:50;;;;;;;3.72;3.43;;;;;;;4.52;64.06;102769.34;458491;115;922668;-78
2022/10/17 03:53:53;;;;;;;4.36;4.05;;;;;;;4.49;64.13;102769.59;458474;115;922733;-79
2022/10/17 03:54:56;;;;;;;9.48;4.48;;;;;;;4.47;64.19;102776.08;458397;115;922479;-79
2022/10/17 03:56:17;;;;;;;5.41;4.99;;;;;;;4.45;64.30;102781.63;458472;115;923035;-78
2022/10/17 03:57:22;;;;;;;7.11;5.50;;;;;;;4.44;64.46;102776.34;458175;115;922488;-79
2022/10/17 03:58:25;;;;;;;7.61;6.91;;;;;;;4.44;64.44;102781.75;458463;115;922494;-78
2022/10/17 03:59:28;;;;;;;7.79;7.09;;;;;;;4.41;64.48;102780.13;449463;118;922533;-79
2022/10/17 04:00:36;;;;;;;7.02;6.41;;;;;;;4.40;64.38;102781.14;450204;115;922555;-78
2022/10/17 04:01:40;;;;;;;7.36;6.78;;;;;;;4.37;64.36;102781.36;449374;118;922565;-78
2022/10/17 04:02:43;;;;;;;8.03;6.56;;;;;;;4.35;64.36;102777.94;449724;115;922896;-79
2022/10/17 04:03:54;;;;;;;6.09;5.69;;;;;;;4.32;64.42;102771.91;457837;115;922536;-79
2022/10/17 04:04:57;;;;;;;6.28;5.83;;;;;;;4.31;64.44;102781.84;458167;115;922673;-78
2022/10/17 04:06:01;;;;;;;7.01;6.53;;;;;;;4.30;64.47;102774.72;458410;115;922860;-79
2022/10/17 04:07:04;;;;;;;6.83;6.25;;;;;;;4.31;64.52;102780.98;458287;115;923092;-79
2022/10/17 04:08:08;;;;;;;6.72;6.22;;;;;;;4.30;64.61;102779.28;458286;115;922482;-78
2022/10/17 04:09:29;;;;;;;6.37;5.87;;;;;;;4.29;64.54;102781.12;458104;115;930533;-79
2022/10/17 04:10:37;;;;;;;5.99;5.58;;;;;;;4.28;64.68;102790.20;457296;115;922897;-79
2022/10/17 04:11:40;;;;;;;6.71;5.90;;;;;;;4.29;64.81;102785.66;458314;115;922519;-79
2022/10/17 04:12:44;;;;;;;6.22;5.72;;;;;;;4.29;64.85;102786.53;458366;115;922874;-79
2022/10/17 04:13:47;;;;;;;5.78;5.36;;;;;;;4.29;65.02;102786.53;458330;115;922536;-79
2022/10/17 04:14:50;;;;;;;6.03;5.53;;;;;;;4.30;65.01;102787.39;458324;115;922660;-79
2022/10/17 04:15:59;;;;;;;5.31;4.84;;;;;;;4.31;65.17;102787.24;458320;115;922769;-79
2022/10/17 04:17:02;;;;;;;9.91;4.63;;;;;;;4.33;65.22;102785.30;458121;115;922724;-79
2022/10/17 04:18:05;;;;;;;5.09;4.46;;;;;;;4.35;65.27;102786.05;458300;115;922619;-79
2022/10/17 04:19:12;;;;;;;4.54;4.23;;;;;;;4.37;65.41;102784.06;458294;115;922959;-79
2022/10/17 04:20:16;;;;;;;4.63;4.25;;;;;;;4.40;65.49;102782.98;458183;115;923134;-79
2022/10/17 04:21:20;;;;;;;4.25;3.86;;;;;;;4.41;65.56;102784.70;458370;115;922787;-79
2022/10/17 04:22:23;;;;;;;4.54;4.18;;;;;;;4.44;65.74;102790.71;458335;115;922591;-80
2022/10/17 04:23:27;;;;;;;4.15;3.79;;;;;;;4.46;65.75;102796.00;458314;115;922649;-79
2022/10/17 04:24:32;;;;;;;4.81;4.41;;;;;;;4.48;65.73;102789.48;458229;115;922566;-78
2022/10/17 04:25:42;;;;;;;;;;;;;;;4.49;65.77;102791.20;461795;115;922175;-79
2022/10/17 04:26:50;;;;;;;4.69;4.29;;;;;;;4.51;65.92;102799.20;458376;115;922302;-79
2022/10/17 04:27:54;;;;;;;4.79;4.39;;;;;;;4.49;65.92;102793.05;458168;115;922491;-79
2022/10/17 04:28:57;;;;;;;4.87;4.48;;;;;;;4.50;66.16;102792.93;458385;115;922507;-79
2022/10/17 04:30:00;;;;;;;6.12;5.56;;;;;;;4.51;66.19;102791.95;459618;115;922784;-79
2022/10/17 04:31:08;;;;;;;8.76;8.01;;;;;;;4.54;66.21;102790.84;461090;115;922555;-78
2022/10/17 04:32:14;;;;;;;11.17;10.41;;;;;;;4.57;66.34;102796.02;457243;115;922482;-79
2022/10/17 04:33:21;;;;;;;10.13;9.43;;;;;;;4.59;66.34;102794.89;457901;115;923057;-78
2022/10/17 04:34:24;;;;;;;8.41;7.66;;;;;;;4.61;66.23;102792.94;465254;113;922337;-79
2022/10/17 04:35:27;;;;;;;8.13;7.43;;;;;;;4.64;66.28;102791.81;466520;113;922409;-79
2022/10/17 04:36:32;;;;;;;9.31;7.04;;;;;;;4.66;66.27;102803.37;465890;113;922503;-79
2022/10/17 04:37:35;;;;;;;7.48;6.89;;;;;;;4.68;66.36;102789.75;457223;116;922449;-79
2022/10/17 04:38:41;;;;;;;6.49;5.98;;;;;;;4.70;66.26;102791.33;457511;113;922621;-79
2022/10/17 04:39:45;;;;;;;6.37;5.87;;;;;;;4.72;66.21;102783.97;466356;113;922752;-78
2022/10/17 04:40:48;;;;;;;6.82;5.86;;;;;;;4.75;66.22;102790.95;466539;113;922617;-79
2022/10/17 04:41:51;;;;;;;5.96;5.56;;;;;;;4.77;66.18;102786.30;466529;113;922810;-79
2022/10/17 04:42:55;;;;;;;5.48;5.10;;;;;;;4.78;66.16;102782.62;466454;113;922553;-78
2022/10/17 04:44:00;;;;;;;5.23;4.83;;;;;;;4.80;66.16;102784.20;465768;113;922889;-79
2022/10/17 04:45:04;;;;;;;4.89;4.49;;;;;;;4.81;66.28;102780.52;457146;116;923281;-79
2022/10/17 04:46:11;;;;;;;5.31;4.87;;;;;;;4.84;66.18;102790.23;457661;113;930579;-79
2022/10/17 04:47:14;;;;;;;8.38;4.77;;;;;;;4.86;66.16;102781.00;466276;113;930465;-78
2022/10/17 04:48:17;;;;;;;5.59;5.11;;;;;;;4.88;66.20;102784.45;457333;116;922492;-78
2022/10/17 04:49:21;;;;;;;4.61;4.31;;;;;;;4.90;66.20;102784.34;457704;113;922987;-78
2022/10/17 04:50:26;;;;;;;4.61;4.23;;;;;;;4.91;66.18;102788.73;463973;113;923236;-79
2022/10/17 04:51:47;;;;;;;5.21;4.40;;;;;;;4.94;66.26;102791.20;460087;114;922529;-79
2022/10/17 04:52:54;;;;;;;4.81;4.40;;;;;;;4.95;66.22;102787.52;455283;116;922509;-79
2022/10/17 04:53:58;;;;;;;4.11;3.81;;;;;;;4.97;66.24;102790.95;455572;116;922436;-79
2022/10/17 04:55:01;;;;;;;4.61;4.21;;;;;;;4.98;66.35;102788.12;455656;116;922907;-79
2022/10/17 04:56:16;;;;;;;4.04;3.74;;;;;;;5.00;66.26;102785.30;455611;114;922581;-79
2022/10/17 04:57:19;;;;;;;4.94;4.57;;;;;;;5.02;66.25;102786.88;455437;116;922531;-79
2022/10/17 04:58:33;;;;;;;4.57;4.17;;;;;;;5.03;66.34;102790.45;454996;116;923330;-80
2022/10/17 04:59:36;;;;;;;8.51;7.84;;;;;;;5.05;66.23;102788.49;455630;116;923357;-79
2022/10/17 05:00:41;;;;;;;8.09;7.40;;;;;;;5.07;66.28;102789.23;454705;116;922584;-79
2022/10/17 05:01:49;;;;;;;5.07;4.48;;;;;;;5.09;66.26;102786.38;454892;116;922639;-79
2022/10/17 05:02:53;;;;;;;4.59;4.19;;;;;;;5.10;66.26;102785.41;455518;116;922774;-79
2022/10/17 05:03:56;;;;;;;5.05;4.38;;;;;;;5.12;66.28;102795.13;455602;116;922770;-79
2022/10/17 05:04:59;;;;;;;6.07;3.71;;;;;;;5.15;66.29;102791.30;455559;116;922962;-80
2022/10/17 05:06:07;;;;;;;4.30;3.94;;;;;;;5.16;66.37;102802.00;455553;116;923075;-79
2022/10/17 05:07:11;;;;;;;3.69;3.40;;;;;;;5.18;66.24;102793.77;449391;118;923130;-80
2022/10/17 05:08:19;;;;;;;3.79;3.49;;;;;;;5.20;66.19;102799.89;449501;116;922651;-80
2022/10/17 05:09:22;;;;;;;3.54;3.23;;;;;;;5.20;66.27;102798.05;455598;116;922605;-80
2022/10/17 05:10:25;;;;;;;3.67;3.37;;;;;;;5.22;66.17;102795.22;455611;116;922603;-79
2022/10/17 05:11:29;;;;;;;3.83;3.52;;;;;;;5.22;66.14;102798.79;455558;114;922619;-79
2022/10/17 05:12:32;;;;;;;3.94;3.63;;;;;;;5.23;66.19;102797.81;455467;116;930885;-79
2022/10/17 05:13:35;;;;;;;3.75;3.35;;;;;;;5.24;66.17;102804.91;455577;116;930425;-79